createdAt,value
2018-04-18T00:00:48.709Z,953.15
2018-04-18T00:01:56.673Z,953.18
2018-04-18T00:03:04.719Z,953.14
2018-04-18T00:04:12.879Z,953.12
2018-04-18T00:05:20.836Z,953.10
2018-04-18T00:06:28.894Z,953.10
2018-04-18T00:07:36.952Z,953.12
2018-04-18T00:08:45.010Z,953.09
2018-04-18T00:09:53.167Z,953.10
2018-04-18T00:11:01.125Z,953.12
2018-04-18T00:12:09.192Z,953.11
2018-04-18T00:13:17.261Z,953.11
2018-04-18T00:14:25.296Z,953.13
2018-04-18T00:15:33.475Z,953.15
2018-04-18T00:16:41.532Z,953.16
2018-04-18T00:17:49.484Z,953.19
2018-04-18T00:18:57.531Z,953.15
2018-04-18T00:20:05.608Z,953.20
2018-04-18T00:21:13.889Z,953.15
2018-04-18T00:22:21.741Z,953.14
2018-04-18T00:23:29.776Z,953.12
2018-04-18T00:24:37.847Z,953.13
2018-04-18T00:25:45.889Z,953.10
2018-04-18T00:26:54.077Z,953.12
2018-04-18T00:28:02.028Z,953.13
2018-04-18T00:29:10.058Z,953.13
2018-04-18T00:30:18.135Z,953.14
2018-04-18T00:31:26.187Z,953.11
2018-04-18T00:32:34.467Z,953.09
2018-04-18T00:33:42.315Z,953.12
2018-04-18T00:34:50.374Z,953.15
2018-04-18T00:35:58.433Z,953.11
2018-04-18T00:37:06.499Z,953.11
2018-04-18T00:38:14.617Z,953.11
2018-04-18T00:39:22.614Z,953.05
2018-04-18T00:40:30.665Z,953.04
2018-04-18T00:41:38.709Z,953.05
2018-04-18T00:42:46.788Z,953.03
2018-04-18T00:43:55.066Z,953.03
2018-04-18T00:45:02.911Z,953.05
2018-04-18T00:46:18.252Z,953.01
2018-04-18T00:47:19.004Z,953.01
2018-04-18T00:48:27.312Z,953.03
2018-04-18T00:49:35.208Z,953.04
2018-04-18T00:50:43.206Z,953.02
2018-04-18T00:51:51.255Z,953.01
2018-04-18T00:52:59.320Z,953.09
2018-04-18T00:54:07.361Z,953.05
2018-04-18T00:55:15.515Z,953.06
2018-04-18T00:56:23.486Z,953.06
2018-04-18T00:57:31.546Z,953.05
2018-04-18T00:58:39.613Z,953.04
2018-04-18T00:59:47.687Z,953.02
2018-04-18T01:00:55.836Z,953.03
2018-04-18T01:02:03.811Z,953.04
2018-04-18T01:03:11.844Z,953.08
2018-04-18T01:04:19.984Z,953.08
2018-04-18T01:05:27.953Z,953.04
2018-04-18T01:06:36.248Z,953.03
2018-04-18T01:07:44.076Z,953.03
2018-04-18T01:08:52.143Z,953.00
2018-04-18T01:10:00.205Z,952.97
2018-04-18T01:11:08.245Z,952.97
2018-04-18T01:12:16.410Z,952.99
2018-04-18T01:13:24.373Z,952.95
2018-04-18T01:14:32.422Z,953.01
2018-04-18T01:15:40.479Z,952.94
2018-04-18T01:16:48.535Z,952.98
2018-04-18T01:17:56.703Z,952.99
2018-04-18T01:19:04.652Z,952.96
2018-04-18T01:20:12.823Z,952.97
2018-04-18T01:21:20.783Z,952.93
2018-04-18T01:22:28.834Z,952.98
2018-04-18T01:23:37.112Z,953.00
2018-04-18T01:24:44.926Z,952.94
2018-04-18T01:25:53.023Z,952.96
2018-04-18T01:27:01.070Z,952.95
2018-04-18T01:28:09.170Z,952.93
2018-04-18T01:29:17.302Z,952.94
2018-04-18T01:30:25.234Z,952.90
2018-04-18T01:31:33.320Z,952.91
2018-04-18T01:32:41.364Z,952.98
2018-04-18T01:33:49.425Z,952.94
2018-04-18T01:34:57.740Z,952.97
2018-04-18T01:36:05.630Z,952.97
2018-04-18T01:37:13.612Z,952.96
2018-04-18T01:38:21.657Z,952.95
2018-04-18T01:39:29.713Z,953.00
2018-04-18T01:40:37.883Z,952.98
2018-04-18T01:41:45.836Z,953.01
2018-04-18T01:42:53.905Z,952.99
2018-04-18T01:44:02.112Z,953.00
2018-04-18T01:45:10.025Z,953.02
2018-04-18T01:46:18.176Z,953.03
2018-04-18T01:47:26.136Z,952.99
2018-04-18T01:48:34.194Z,953.00
2018-04-18T01:49:42.255Z,953.00
2018-04-18T01:50:50.316Z,952.97
2018-04-18T01:51:58.594Z,953.00
2018-04-18T01:53:06.428Z,953.00
2018-04-18T01:54:14.482Z,953.00
2018-04-18T01:55:22.583Z,953.02
2018-04-18T01:56:30.648Z,952.98
2018-04-18T01:57:38.778Z,952.99
2018-04-18T01:58:46.721Z,952.99
2018-04-18T01:59:54.761Z,952.97
2018-04-18T02:01:02.838Z,953.05
2018-04-18T02:02:10.894Z,953.02
2018-04-18T02:03:19.049Z,953.01
2018-04-18T02:04:27.010Z,953.03
2018-04-18T02:05:35.049Z,953.07
2018-04-18T02:06:43.169Z,953.03
2018-04-18T02:07:51.283Z,953.03
2018-04-18T02:08:59.473Z,953.02
2018-04-18T02:10:07.324Z,953.00
2018-04-18T02:11:15.352Z,952.99
2018-04-18T02:12:23.428Z,953.02
2018-04-18T02:13:31.489Z,953.00
2018-04-18T02:14:39.636Z,952.97
2018-04-18T02:15:47.612Z,952.97
2018-04-18T02:16:55.657Z,953.00
2018-04-18T02:18:03.732Z,952.99
2018-04-18T02:19:11.774Z,952.99
2018-04-18T02:20:19.939Z,953.01
2018-04-18T02:21:27.894Z,952.98
2018-04-18T02:22:35.949Z,953.00
2018-04-18T02:23:44.112Z,953.01
2018-04-18T02:24:52.072Z,952.98
2018-04-18T02:26:00.361Z,952.95
2018-04-18T02:27:08.192Z,952.96
2018-04-18T02:28:16.270Z,953.02
2018-04-18T02:29:24.304Z,953.03
2018-04-18T02:30:32.370Z,953.03
2018-04-18T02:31:40.537Z,953.00
2018-04-18T02:32:48.496Z,953.05
2018-04-18T02:33:56.558Z,953.06
2018-04-18T02:35:04.602Z,953.01
2018-04-18T02:36:12.681Z,953.02
2018-04-18T02:37:20.818Z,953.00
2018-04-18T02:38:28.785Z,953.04
2018-04-18T02:39:36.954Z,953.03
2018-04-18T02:40:44.888Z,952.98
2018-04-18T02:41:52.957Z,952.98
2018-04-18T02:43:01.381Z,952.98
2018-04-18T02:44:09.088Z,952.97
2018-04-18T02:45:17.149Z,952.98
2018-04-18T02:46:25.180Z,953.00
2018-04-18T02:47:33.285Z,952.96
2018-04-18T02:48:41.434Z,952.99
2018-04-18T02:49:49.377Z,952.98
2018-04-18T02:50:57.440Z,952.98
2018-04-18T02:52:05.487Z,952.96
2018-04-18T02:53:13.547Z,952.97
2018-04-18T02:54:21.711Z,953.03
2018-04-18T02:55:29.761Z,953.00
2018-04-18T02:56:37.730Z,952.99
2018-04-18T02:57:45.802Z,952.97
2018-04-18T02:58:53.857Z,952.97
2018-04-18T03:00:02.154Z,953.01
2018-04-18T03:01:09.974Z,952.93
2018-04-18T03:02:18.030Z,953.01
2018-04-18T03:03:26.094Z,952.99
2018-04-18T03:04:34.140Z,953.02
2018-04-18T03:05:42.315Z,953.00
2018-04-18T03:06:50.278Z,953.01
2018-04-18T03:07:58.324Z,952.99
2018-04-18T03:09:06.373Z,953.01
2018-04-18T03:10:14.437Z,952.98
2018-04-18T03:11:22.717Z,952.97
2018-04-18T03:12:30.545Z,953.00
2018-04-18T03:13:38.621Z,952.98
2018-04-18T03:14:46.684Z,952.95
2018-04-18T03:15:54.722Z,952.99
2018-04-18T03:17:03.014Z,952.97
2018-04-18T03:18:10.840Z,953.04
2018-04-18T03:19:18.930Z,953.00
2018-04-18T03:20:26.971Z,952.99
2018-04-18T03:21:35.025Z,953.03
2018-04-18T03:22:43.192Z,953.02
2018-04-18T03:23:51.147Z,952.97
2018-04-18T03:24:59.227Z,952.98
2018-04-18T03:26:07.263Z,952.96
2018-04-18T03:27:15.402Z,952.98
2018-04-18T03:28:23.490Z,952.99
2018-04-18T03:29:31.449Z,952.98
2018-04-18T03:30:39.517Z,952.97
2018-04-18T03:31:47.570Z,952.97
2018-04-18T03:32:55.625Z,953.00
2018-04-18T03:34:03.907Z,953.02
2018-04-18T03:35:11.724Z,953.02
2018-04-18T03:36:19.834Z,953.05
2018-04-18T03:37:27.877Z,953.07
2018-04-18T03:38:35.921Z,953.06
2018-04-18T03:39:44.073Z,953.05
2018-04-18T03:40:52.151Z,953.04
2018-04-18T03:42:00.086Z,953.07
2018-04-18T03:43:08.268Z,953.08
2018-04-18T03:44:16.231Z,953.04
2018-04-18T03:45:24.373Z,953.04
2018-04-18T03:46:32.332Z,953.09
2018-04-18T03:47:40.393Z,953.06
2018-04-18T03:48:48.470Z,953.09
2018-04-18T03:49:56.517Z,953.09
2018-04-18T03:51:04.658Z,953.09
2018-04-18T03:52:12.636Z,953.10
2018-04-18T03:53:20.686Z,953.09
2018-04-18T03:54:28.752Z,953.07
2018-04-18T03:55:36.823Z,953.11
2018-04-18T03:56:45.073Z,953.07
2018-04-18T03:57:52.926Z,953.10
2018-04-18T03:59:01.096Z,953.07
2018-04-18T04:00:09.033Z,953.08
2018-04-18T04:01:17.127Z,953.10
2018-04-18T04:02:25.240Z,953.07
2018-04-18T04:03:33.213Z,953.11
2018-04-18T04:04:41.281Z,953.07
2018-04-18T04:05:49.348Z,953.11
2018-04-18T04:06:57.426Z,953.09
2018-04-18T04:08:05.676Z,953.10
2018-04-18T04:09:13.520Z,953.14
2018-04-18T04:10:21.572Z,953.14
2018-04-18T04:11:29.676Z,953.11
2018-04-18T04:12:37.702Z,953.11
2018-04-18T04:13:45.865Z,953.15
2018-04-18T04:14:53.924Z,953.17
2018-04-18T04:16:01.890Z,953.22
2018-04-18T04:17:09.938Z,953.19
2018-04-18T04:18:18.005Z,953.17
2018-04-18T04:19:26.155Z,953.21
2018-04-18T04:20:34.128Z,953.18
2018-04-18T04:21:42.176Z,953.20
2018-04-18T04:22:50.223Z,953.22
2018-04-18T04:23:58.307Z,953.20
2018-04-18T04:25:06.569Z,953.23
2018-04-18T04:26:14.408Z,953.19
2018-04-18T04:27:22.472Z,953.24
2018-04-18T04:28:30.515Z,953.21
2018-04-18T04:29:38.588Z,953.18
2018-04-18T04:30:46.872Z,953.26
2018-04-18T04:31:54.701Z,953.24
2018-04-18T04:33:02.761Z,953.24
2018-04-18T04:34:11.094Z,953.28
2018-04-18T04:35:18.880Z,953.20
2018-04-18T04:36:27.033Z,953.21
2018-04-18T04:37:34.990Z,953.25
2018-04-18T04:38:43.058Z,953.27
2018-04-18T04:39:51.126Z,953.26
2018-04-18T04:40:59.172Z,953.27
2018-04-18T04:42:07.344Z,953.26
2018-04-18T04:43:15.323Z,953.30
2018-04-18T04:44:23.366Z,953.29
2018-04-18T04:45:31.637Z,953.31
2018-04-18T04:46:39.579Z,953.30
2018-04-18T04:47:47.764Z,953.34
2018-04-18T04:48:56.146Z,953.34
2018-04-18T04:50:03.765Z,953.36
2018-04-18T04:51:11.712Z,953.35
2018-04-18T04:52:19.775Z,953.38
2018-04-18T04:53:27.944Z,953.40
2018-04-18T04:54:36.622Z,953.42
2018-04-18T04:55:43.954Z,953.46
2018-04-18T04:56:52.018Z,953.46
2018-04-18T04:58:00.067Z,953.46
2018-04-18T04:59:08.218Z,953.51
2018-04-18T05:00:16.202Z,953.52
2018-04-18T05:01:24.237Z,953.49
2018-04-18T05:02:32.497Z,953.52
2018-04-18T05:03:40.371Z,953.52
2018-04-18T05:04:48.523Z,953.54
2018-04-18T05:05:56.483Z,953.54
2018-04-18T05:07:04.541Z,953.58
2018-04-18T05:08:12.596Z,953.56
2018-04-18T05:09:20.656Z,953.60
2018-04-18T05:10:28.940Z,953.60
2018-04-18T05:11:36.774Z,953.65
2018-04-18T05:12:44.812Z,953.64
2018-04-18T05:13:52.882Z,953.63
2018-04-18T05:15:00.956Z,953.65
2018-04-18T05:16:09.774Z,953.65
2018-04-18T05:17:17.077Z,953.64
2018-04-18T05:18:26.946Z,953.69
2018-04-18T05:19:33.178Z,953.69
2018-04-18T05:20:41.253Z,953.67
2018-04-18T05:21:49.395Z,953.68
2018-04-18T05:22:57.366Z,953.70
2018-04-18T05:24:05.404Z,953.70
2018-04-18T05:25:13.483Z,953.68
2018-04-18T05:26:21.552Z,953.74
2018-04-18T05:27:29.706Z,953.76
2018-04-18T05:28:37.679Z,953.73
2018-04-18T05:29:45.725Z,953.79
2018-04-18T05:30:53.850Z,953.77
2018-04-18T05:32:01.868Z,953.79
2018-04-18T05:33:09.994Z,953.80
2018-04-18T05:34:18.206Z,953.83
2018-04-18T05:35:26.168Z,953.89
2018-04-18T05:36:34.113Z,953.82
2018-04-18T05:37:42.152Z,953.85
2018-04-18T05:38:50.314Z,953.84
2018-04-18T05:39:58.263Z,953.91
2018-04-18T05:41:06.334Z,953.89
2018-04-18T05:42:14.392Z,953.95
2018-04-18T05:43:22.475Z,953.94
2018-04-18T05:44:30.606Z,953.98
2018-04-18T05:45:38.564Z,953.95
2018-04-18T05:46:46.616Z,953.97
2018-04-18T05:47:54.696Z,954.05
2018-04-18T05:49:02.752Z,954.07
2018-04-18T05:50:11.038Z,954.17
2018-04-18T05:51:18.869Z,954.23
2018-04-18T05:52:26.935Z,954.26
2018-04-18T05:53:34.977Z,954.07
2018-04-18T05:54:43.089Z,954.07
2018-04-18T05:55:51.220Z,954.15
2018-04-18T05:56:59.183Z,954.23
2018-04-18T05:58:07.257Z,954.10
2018-04-18T05:59:15.273Z,954.06
2018-04-18T06:00:23.382Z,954.14
2018-04-18T06:01:31.531Z,954.07
2018-04-18T06:02:39.502Z,954.21
2018-04-18T06:03:47.553Z,954.29
2018-04-18T06:04:55.635Z,954.29
2018-04-18T06:06:03.781Z,954.27
2018-04-18T06:07:11.988Z,954.29
2018-04-18T06:08:19.819Z,954.32
2018-04-18T06:09:27.877Z,954.28
2018-04-18T06:10:35.940Z,954.26
2018-04-18T06:11:44.011Z,954.29
2018-04-18T06:12:52.169Z,954.33
2018-04-18T06:14:00.122Z,954.18
2018-04-18T06:15:08.193Z,954.12
2018-04-18T06:16:16.279Z,954.17
2018-04-18T06:17:24.340Z,954.28
2018-04-18T06:18:32.491Z,954.26
2018-04-18T06:19:40.461Z,954.21
2018-04-18T06:20:48.518Z,954.16
2018-04-18T06:21:56.681Z,954.16
2018-04-18T06:23:04.649Z,954.27
2018-04-18T06:24:12.969Z,954.37
2018-04-18T06:25:20.800Z,954.27
2018-04-18T06:26:28.846Z,954.26
2018-04-18T06:27:36.932Z,954.20
2018-04-18T06:28:44.965Z,954.31
2018-04-18T06:29:53.158Z,954.27
2018-04-18T06:31:01.132Z,954.31
2018-04-18T06:32:09.194Z,954.35
2018-04-18T06:33:17.244Z,954.55
2018-04-18T06:34:25.300Z,954.42
2018-04-18T06:35:33.607Z,954.38
2018-04-18T06:36:41.446Z,954.44
2018-04-18T06:37:49.606Z,954.43
2018-04-18T06:38:57.578Z,954.50
2018-04-18T06:40:05.657Z,954.41
2018-04-18T06:41:13.850Z,954.48
2018-04-18T06:42:21.782Z,954.47
2018-04-18T06:43:29.835Z,954.48
2018-04-18T06:44:37.916Z,954.41
2018-04-18T06:45:45.985Z,954.49
2018-04-18T06:46:54.148Z,954.52
2018-04-18T06:48:02.131Z,954.47
2018-04-18T06:49:10.178Z,954.52
2018-04-18T06:50:18.245Z,954.26
2018-04-18T06:51:26.315Z,954.32
2018-04-18T06:52:34.587Z,954.28
2018-04-18T06:53:42.555Z,954.36
2018-04-18T06:54:50.510Z,954.43
2018-04-18T06:55:58.586Z,954.30
2018-04-18T06:57:06.650Z,954.33
2018-04-18T06:58:14.798Z,954.46
2018-04-18T06:59:22.783Z,954.41
2018-04-18T07:00:30.844Z,954.29
2018-04-18T07:01:38.910Z,954.35
2018-04-18T07:02:46.971Z,954.50
2018-04-18T07:03:55.113Z,954.47
2018-04-18T07:05:03.099Z,954.54
2018-04-18T07:06:11.169Z,954.47
2018-04-18T07:07:19.218Z,954.48
2018-04-18T07:08:27.306Z,954.60
2018-04-18T07:09:35.587Z,954.54
2018-04-18T07:10:43.438Z,954.53
2018-04-18T07:11:51.504Z,954.43
2018-04-18T07:12:59.562Z,954.32
2018-04-18T07:14:07.644Z,954.40
2018-04-18T07:15:15.805Z,954.40
2018-04-18T07:16:23.763Z,954.36
2018-04-18T07:17:31.830Z,954.45
2018-04-18T07:18:39.891Z,954.93
2018-04-18T07:19:47.961Z,955.33
2018-04-18T07:20:56.162Z,955.40
2018-04-18T07:22:04.088Z,955.42
2018-04-18T07:23:12.148Z,955.47
2018-04-18T07:24:20.231Z,955.61
2018-04-18T07:25:28.528Z,955.03
2018-04-18T07:26:36.578Z,954.56
2018-04-18T07:27:44.423Z,954.48
2018-04-18T07:28:52.499Z,954.47
2018-04-18T07:30:00.567Z,954.49
2018-04-18T07:31:08.625Z,954.46
2018-04-18T07:32:16.802Z,954.44
2018-04-18T07:33:24.742Z,954.64
2018-04-18T07:34:32.853Z,954.75
2018-04-18T07:35:40.887Z,954.60
2018-04-18T07:36:48.960Z,956.22
2018-04-18T07:37:57.137Z,956.84
2018-04-18T07:39:05.094Z,955.54
2018-04-18T07:40:13.217Z,954.84
2018-04-18T07:41:21.453Z,954.47
2018-04-18T07:42:29.313Z,955.55
2018-04-18T07:43:37.475Z,956.82
2018-04-18T07:44:45.414Z,957.32
2018-04-18T07:45:53.504Z,957.66
2018-04-18T07:47:01.572Z,959.82
2018-04-18T07:48:09.649Z,959.09
2018-04-18T07:49:17.811Z,958.53
2018-04-18T07:50:25.780Z,958.93
2018-04-18T07:51:33.850Z,958.28
2018-04-18T07:52:41.920Z,958.73
2018-04-18T07:53:49.991Z,960.34
2018-04-18T07:54:58.182Z,960.60
2018-04-18T07:56:06.141Z,961.23
2018-04-18T07:57:14.414Z,961.90
2018-04-18T07:58:22.256Z,962.69
2018-04-18T07:59:30.333Z,963.06
2018-04-18T08:00:38.503Z,963.28
2018-04-18T08:01:46.494Z,963.90
2018-04-18T08:02:54.544Z,963.60
2018-04-18T08:04:02.626Z,963.47
2018-04-18T08:05:10.705Z,962.40
2018-04-18T08:06:18.862Z,961.08
2018-04-18T08:07:26.845Z,959.99
2018-04-18T08:08:34.931Z,959.88
2018-04-18T08:09:42.994Z,961.80
2018-04-18T08:10:51.056Z,961.56
2018-04-18T08:11:59.232Z,962.37
2018-04-18T08:13:07.444Z,960.31
2018-04-18T08:14:15.256Z,961.56
2018-04-18T08:15:23.442Z,962.45
2018-04-18T08:16:31.425Z,963.12
2018-04-18T08:17:39.611Z,963.31
2018-04-18T08:18:47.567Z,965.73
2018-04-18T08:19:55.763Z,967.35
2018-04-18T08:21:03.723Z,964.98
2018-04-18T08:22:11.797Z,965.83
2018-04-18T08:23:19.955Z,966.05
2018-04-18T08:24:27.948Z,967.47
2018-04-18T08:25:36.031Z,968.41
2018-04-18T08:26:44.092Z,969.34
2018-04-18T08:27:52.162Z,967.45
2018-04-18T08:29:00.485Z,965.77
2018-04-18T08:30:08.319Z,971.23
2018-04-18T08:31:16.388Z,970.92
2018-04-18T08:32:24.456Z,970.86
2018-04-18T08:33:32.532Z,970.95
2018-04-18T08:34:40.841Z,967.93
2018-04-18T08:35:48.684Z,969.33
2018-04-18T08:36:56.755Z,971.59
2018-04-18T08:38:04.812Z,971.29
2018-04-18T08:39:12.901Z,972.36
2018-04-18T08:40:21.072Z,973.18
2018-04-18T08:41:29.051Z,973.94
2018-04-18T08:42:37.129Z,973.40
2018-04-18T08:43:45.201Z,971.95
2018-04-18T08:44:53.373Z,971.06
2018-04-18T08:46:01.470Z,970.70
2018-04-18T08:47:09.425Z,970.21
2018-04-18T08:48:17.509Z,969.70
2018-04-18T08:49:25.573Z,969.33
2018-04-18T08:50:33.654Z,970.75
2018-04-18T08:51:41.848Z,972.49
2018-04-18T08:52:49.797Z,972.50
2018-04-18T08:53:57.870Z,962.88
2018-04-18T08:55:05.970Z,954.86
2018-04-18T08:56:14.029Z,954.81
2018-04-18T08:57:22.185Z,954.78
2018-04-18T08:58:30.176Z,954.74
2018-04-18T08:59:38.230Z,954.68
2018-04-18T09:00:46.419Z,954.71
2018-04-18T09:01:54.389Z,954.73
2018-04-18T09:03:02.558Z,954.68
2018-04-18T09:04:10.524Z,954.72
2018-04-18T09:05:18.600Z,954.65
2018-04-18T09:06:26.678Z,954.67
2018-04-18T09:07:34.721Z,954.66
2018-04-18T09:08:42.901Z,954.64
2018-04-18T09:09:50.895Z,954.68
2018-04-18T09:10:58.952Z,954.57
2018-04-18T09:12:07.033Z,954.73
2018-04-18T09:13:15.067Z,954.61
2018-04-18T09:14:23.276Z,954.69
2018-04-18T09:15:31.246Z,954.70
2018-04-18T09:16:39.521Z,954.63
2018-04-18T09:17:47.378Z,954.61
2018-04-18T09:18:55.422Z,954.57
2018-04-18T09:20:03.611Z,954.59
2018-04-18T09:21:11.576Z,954.72
2018-04-18T09:22:19.655Z,954.60
2018-04-18T09:23:27.723Z,954.54
2018-04-18T09:24:35.781Z,954.58
2018-04-18T09:25:44.083Z,954.51
2018-04-18T09:26:51.929Z,954.56
2018-04-18T09:28:00.026Z,954.55
2018-04-18T09:29:08.053Z,954.52
2018-04-18T09:30:16.116Z,954.60
2018-04-18T09:31:24.304Z,954.60
2018-04-18T09:32:32.479Z,954.57
2018-04-18T09:33:40.325Z,954.60
2018-04-18T09:34:48.410Z,954.57
2018-04-18T09:35:56.473Z,954.57
2018-04-18T09:37:04.612Z,954.55
2018-04-18T09:38:12.614Z,954.53
2018-04-18T09:39:20.670Z,954.53
2018-04-18T09:40:28.740Z,954.49
2018-04-18T09:41:36.820Z,954.52
2018-04-18T09:42:44.962Z,954.49
2018-04-18T09:43:52.938Z,954.54
2018-04-18T09:45:01.021Z,954.48
2018-04-18T09:46:09.079Z,954.55
2018-04-18T09:47:17.141Z,954.56
2018-04-18T09:48:25.420Z,954.46
2018-04-18T09:49:33.283Z,954.52
2018-04-18T09:50:41.343Z,954.47
2018-04-18T09:51:49.413Z,954.47
2018-04-18T09:52:57.500Z,954.52
2018-04-18T09:54:05.642Z,954.51
2018-04-18T09:55:13.617Z,954.52
2018-04-18T09:56:21.687Z,954.47
2018-04-18T09:57:29.756Z,954.43
2018-04-18T09:58:37.828Z,954.48
2018-04-18T09:59:45.974Z,954.53
2018-04-18T10:00:53.961Z,954.54
2018-04-18T10:02:02.029Z,954.38
2018-04-18T10:03:10.084Z,954.38
2018-04-18T10:04:18.255Z,954.35
2018-04-18T10:05:26.446Z,954.34
2018-04-18T10:06:34.304Z,954.32
2018-04-18T10:07:42.351Z,954.34
2018-04-18T10:08:50.432Z,954.46
2018-04-18T10:09:58.529Z,954.27
2018-04-18T10:11:06.659Z,954.41
2018-04-18T10:12:14.608Z,954.37
2018-04-18T10:13:22.684Z,954.34
2018-04-18T10:14:30.903Z,954.35
2018-04-18T10:15:38.833Z,954.22
2018-04-18T10:16:46.976Z,954.30
2018-04-18T10:17:54.944Z,954.30
2018-04-18T10:19:03.033Z,954.31
2018-04-18T10:20:11.193Z,954.28
2018-04-18T10:21:19.163Z,954.33
2018-04-18T10:22:27.330Z,954.25
2018-04-18T10:23:35.291Z,954.28
2018-04-18T10:24:43.373Z,954.24
2018-04-18T10:25:51.431Z,954.15
2018-04-18T10:26:59.506Z,954.21
2018-04-18T10:28:07.689Z,954.36
2018-04-18T10:29:15.640Z,954.22
2018-04-18T10:30:23.703Z,954.22
2018-04-18T10:31:31.767Z,954.26
2018-04-18T10:32:39.842Z,954.31
2018-04-18T10:33:48.148Z,954.21
2018-04-18T10:34:55.973Z,954.19
2018-04-18T10:36:04.163Z,954.17
2018-04-18T10:37:12.094Z,954.22
2018-04-18T10:38:20.183Z,954.17
2018-04-18T10:39:28.466Z,954.17
2018-04-18T10:40:36.319Z,954.27
2018-04-18T10:41:44.364Z,954.36
2018-04-18T10:42:52.475Z,954.16
2018-04-18T10:44:00.517Z,954.20
2018-04-18T10:45:08.656Z,954.13
2018-04-18T10:46:16.642Z,954.22
2018-04-18T10:47:24.716Z,954.19
2018-04-18T10:48:32.786Z,954.21
2018-04-18T10:49:40.844Z,954.19
2018-04-18T10:50:49.157Z,954.17
2018-04-18T10:51:57.085Z,954.18
2018-04-18T10:53:05.043Z,954.16
2018-04-18T10:54:13.116Z,954.27
2018-04-18T10:55:21.188Z,954.27
2018-04-18T10:56:29.354Z,954.23
2018-04-18T10:57:37.327Z,954.21
2018-04-18T10:58:45.416Z,954.16
2018-04-18T10:59:53.464Z,954.14
2018-04-18T11:01:01.523Z,954.11
2018-04-18T11:02:09.692Z,954.13
2018-04-18T11:03:17.681Z,954.21
2018-04-18T11:04:25.748Z,954.15
2018-04-18T11:05:33.791Z,954.19
2018-04-18T11:06:41.872Z,954.23
2018-04-18T11:07:50.176Z,954.17
2018-04-18T11:08:58.141Z,954.13
2018-04-18T11:10:06.075Z,954.07
2018-04-18T11:11:14.134Z,954.06
2018-04-18T11:12:22.201Z,954.10
2018-04-18T11:13:30.363Z,953.97
2018-04-18T11:14:38.384Z,953.94
2018-04-18T11:15:46.421Z,953.98
2018-04-18T11:16:54.480Z,953.97
2018-04-18T11:18:02.550Z,954.07
2018-04-18T11:19:10.712Z,953.99
2018-04-18T11:20:18.688Z,954.05
2018-04-18T11:21:26.761Z,953.92
2018-04-18T11:22:34.823Z,953.93
2018-04-18T11:23:42.984Z,953.86
2018-04-18T11:24:51.176Z,954.03
2018-04-18T11:25:59.018Z,954.17
2018-04-18T11:27:07.091Z,954.09
2018-04-18T11:28:15.132Z,954.03
2018-04-18T11:29:23.232Z,953.99
2018-04-18T11:30:31.398Z,954.04
2018-04-18T11:31:39.365Z,953.95
2018-04-18T11:32:47.432Z,953.97
2018-04-18T11:33:55.484Z,954.05
2018-04-18T11:35:03.575Z,954.00
2018-04-18T11:36:11.724Z,954.07
2018-04-18T11:37:19.729Z,954.14
2018-04-18T11:38:27.771Z,954.01
2018-04-18T11:39:35.979Z,953.98
2018-04-18T11:40:43.904Z,954.01
2018-04-18T11:41:52.192Z,954.01
2018-04-18T11:43:00.057Z,954.02
2018-04-18T11:44:08.113Z,954.00
2018-04-18T11:45:16.182Z,954.05
2018-04-18T11:46:24.260Z,953.99
2018-04-18T11:47:32.431Z,954.04
2018-04-18T11:48:40.403Z,953.97
2018-04-18T11:49:48.455Z,953.98
2018-04-18T11:50:56.520Z,953.94
2018-04-18T11:52:04.578Z,953.89
2018-04-18T11:53:12.757Z,954.02
2018-04-18T11:54:20.730Z,953.95
2018-04-18T11:55:28.926Z,953.90
2018-04-18T11:56:36.864Z,953.90
2018-04-18T11:57:44.897Z,953.83
2018-04-18T11:58:53.219Z,953.77
2018-04-18T12:00:01.053Z,953.77
2018-04-18T12:01:09.131Z,953.77
2018-04-18T12:02:17.206Z,953.76
2018-04-18T12:03:25.466Z,953.86
2018-04-18T12:04:33.447Z,953.89
2018-04-18T12:05:41.416Z,953.86
2018-04-18T12:06:49.471Z,953.79
2018-04-18T12:07:57.540Z,953.72
2018-04-18T12:09:05.604Z,953.88
2018-04-18T12:10:13.919Z,953.84
2018-04-18T12:11:21.861Z,953.74
2018-04-18T12:12:29.825Z,953.74
2018-04-18T12:13:37.889Z,953.81
2018-04-18T12:14:45.949Z,953.77
2018-04-18T12:15:54.122Z,953.78
2018-04-18T12:17:02.082Z,953.64
2018-04-18T12:18:10.167Z,953.71
2018-04-18T12:19:18.229Z,953.94
2018-04-18T12:20:26.282Z,953.82
2018-04-18T12:21:34.455Z,953.80
2018-04-18T12:22:42.420Z,953.76
2018-04-18T12:23:50.486Z,953.85
2018-04-18T12:24:58.570Z,953.79
2018-04-18T12:26:06.629Z,953.89
2018-04-18T12:27:14.918Z,953.80
2018-04-18T12:28:22.779Z,953.90
2018-04-18T12:29:30.818Z,953.79
2018-04-18T12:30:38.904Z,953.77
2018-04-18T12:31:46.988Z,953.79
2018-04-18T12:32:55.121Z,953.80
2018-04-18T12:34:03.144Z,953.76
2018-04-18T12:35:11.165Z,953.80
2018-04-18T12:36:19.247Z,953.70
2018-04-18T12:37:27.326Z,953.82
2018-04-18T12:38:35.483Z,953.70
2018-04-18T12:39:43.446Z,953.89
2018-04-18T12:40:51.518Z,953.84
2018-04-18T12:41:59.581Z,953.72
2018-04-18T12:43:07.766Z,953.84
2018-04-18T12:44:15.837Z,953.76
2018-04-18T12:45:23.795Z,953.69
2018-04-18T12:46:31.851Z,953.73
2018-04-18T12:47:39.926Z,953.74
2018-04-18T12:48:48.000Z,953.63
2018-04-18T12:49:56.287Z,953.80
2018-04-18T12:51:04.126Z,953.69
2018-04-18T12:52:12.205Z,953.75
2018-04-18T12:53:20.269Z,953.68
2018-04-18T12:54:28.322Z,953.71
2018-04-18T12:55:36.512Z,953.73
2018-04-18T12:56:44.499Z,953.75
2018-04-18T12:57:52.541Z,953.66
2018-04-18T12:59:00.684Z,953.67
2018-04-18T13:00:08.673Z,953.81
2018-04-18T13:01:16.830Z,953.77
2018-04-18T13:02:24.792Z,953.60
2018-04-18T13:03:33.017Z,953.73
2018-04-18T13:04:40.963Z,953.70
2018-04-18T13:05:49.023Z,953.69
2018-04-18T13:06:57.307Z,953.61
2018-04-18T13:08:05.155Z,953.54
2018-04-18T13:09:13.217Z,953.62
2018-04-18T13:10:21.294Z,953.74
2018-04-18T13:11:29.356Z,953.61
2018-04-18T13:12:37.557Z,953.57
2018-04-18T13:13:45.488Z,953.78
2018-04-18T13:14:53.655Z,953.66
2018-04-18T13:16:01.621Z,953.67
2018-04-18T13:17:09.696Z,953.57
2018-04-18T13:18:17.879Z,953.59
2018-04-18T13:19:25.830Z,953.64
2018-04-18T13:20:33.910Z,953.55
2018-04-18T13:21:41.957Z,953.57
2018-04-18T13:22:50.016Z,953.66
2018-04-18T13:23:58.336Z,953.66
2018-04-18T13:25:06.172Z,953.61
2018-04-18T13:26:14.243Z,953.54
2018-04-18T13:27:22.312Z,953.57
2018-04-18T13:28:30.386Z,953.71
2018-04-18T13:29:38.545Z,953.55
2018-04-18T13:30:46.610Z,953.57
2018-04-18T13:31:54.583Z,953.56
2018-04-18T13:33:02.658Z,953.57
2018-04-18T13:34:10.721Z,953.50
2018-04-18T13:35:18.874Z,953.58
2018-04-18T13:36:26.867Z,953.47
2018-04-18T13:37:34.913Z,953.51
2018-04-18T13:38:42.976Z,953.50
2018-04-18T13:39:51.063Z,953.48
2018-04-18T13:40:59.347Z,953.49
2018-04-18T13:42:07.200Z,953.39
2018-04-18T13:43:15.239Z,953.36
2018-04-18T13:44:23.333Z,953.37
2018-04-18T13:45:31.396Z,953.48
2018-04-18T13:46:39.701Z,953.49
2018-04-18T13:47:47.548Z,953.46
2018-04-18T13:48:55.593Z,953.42
2018-04-18T13:50:03.664Z,953.30
2018-04-18T13:51:11.741Z,953.37
2018-04-18T13:52:19.916Z,953.51
2018-04-18T13:53:27.884Z,953.40
2018-04-18T13:54:35.954Z,953.36
2018-04-18T13:55:44.006Z,953.34
2018-04-18T13:56:52.091Z,953.36
2018-04-18T13:58:00.238Z,953.34
2018-04-18T13:59:08.229Z,953.34
2018-04-18T14:00:16.293Z,953.35
2018-04-18T14:01:24.354Z,953.33
2018-04-18T14:02:32.515Z,953.30
2018-04-18T14:03:40.708Z,953.36
2018-04-18T14:04:48.567Z,953.30
2018-04-18T14:05:56.625Z,953.36
2018-04-18T14:07:04.679Z,953.36
2018-04-18T14:08:12.753Z,953.44
2018-04-18T14:09:20.913Z,953.31